Eastern Galaxy — DUCH — position and weather

sailwx.info

Track history (hours):
 
Tides and Currents Weather Stations Pressure Air Temp Water Temp Dewpoint Dewpoint Depression Visibility Wind Speed Wind Dir Waves Ship Positions

Eastern Galaxy

Last reported at 2015-Mar-23 20:24 UTC. Time now 2015-Mar-28 17:46 UTC.
Position N 34°29' E 138°33'.

Length 100 m; draft 5.3 m.

Type: Cargo ship. MMSI: 548829000.

Date/timePositionNaut miles runAvg speedWind from/ knotsBaromVisibWave heightAir tempDewpointWater temp
2015-Mar-23 20:24N 34°29' E 138°33'49 8.4
2015-Mar-23 14:30N 34°55' E 139°24'1111.6
2015-Mar-23 13:33N 35°01' E 139°35'1211.9
2015-Mar-23 12:33N 35°10' E 139°45'1211.6
2015-Mar-23 11:33N 35°21' E 139°42'6 5.8
2015-Mar-23 10:31N 35°27' E 139°41'0 0.0
2015-Mar-23 09:31N 35°27' E 139°41'0 0.0
2015-Mar-23 08:31N 35°27' E 139°41'0 0.0
2015-Mar-23 07:31N 35°27' E 139°41'0 0.0
2015-Mar-23 06:31N 35°27' E 139°41'0 0.0
2015-Mar-23 05:31N 35°27' E 139°41'0 0.0
2015-Mar-23 04:31N 35°27' E 139°41'0 0.0
2015-Mar-23 03:31N 35°27' E 139°41'0 0.0
2015-Mar-23 02:31N 35°27' E 139°41'0 0.0
2015-Mar-23 01:31N 35°27' E 139°41'0 0.0
2015-Mar-23 00:31N 35°27' E 139°41'0 0.0
2015-Mar-22 23:31N 35°27' E 139°41'0 0.0
2015-Mar-22 22:31N 35°27' E 139°41'0 0.0
2015-Mar-22 21:31N 35°27' E 139°41'0 0.0
2015-Mar-22 20:31N 35°27' E 139°41'0 0.0
2015-Mar-22 19:31N 35°27' E 139°41'0 0.0
2015-Mar-22 18:31N 35°27' E 139°41'0 0.0
2015-Mar-22 17:31N 35°27' E 139°41'0 0.0
2015-Mar-22 16:31N 35°27' E 139°41'0 0.0
2015-Mar-22 15:30N 35°27' E 139°41'0 0.0
2015-Mar-22 14:33N 35°27' E 139°41'0 0.0
2015-Mar-22 13:33N 35°27' E 139°41'0 0.0
2015-Mar-22 12:33N 35°27' E 139°41'0 0.0
2015-Mar-22 11:33N 35°27' E 139°41'0 0.0
2015-Mar-22 10:33N 35°27' E 139°41'0 0.0
2015-Mar-22 09:33N 35°27' E 139°41'0 0.0
2015-Mar-22 08:33N 35°27' E 139°41'0 0.0
2015-Mar-22 07:33N 35°27' E 139°41'0 0.0
2015-Mar-22 06:33N 35°27' E 139°41'0 0.0
2015-Mar-22 05:24N 35°27' E 139°41'0 0.0
2015-Mar-22 04:33N 35°27' E 139°41'0 0.0
2015-Mar-22 03:33N 35°27' E 139°41'0 0.0
2015-Mar-22 02:33N 35°27' E 139°41'0 0.0
2015-Mar-22 01:33N 35°27' E 139°41'0 0.0
2015-Mar-22 00:33N 35°27' E 139°41'0 0.0
2015-Mar-21 23:33N 35°27' E 139°41'0 0.0
2015-Mar-21 22:33N 35°27' E 139°41'0 0.0
2015-Mar-21 21:33N 35°27' E 139°41'0 0.0
2015-Mar-21 20:33N 35°27' E 139°41'0 0.0
2015-Mar-21 19:27N 35°27' E 139°41'0 0.0
2015-Mar-21 18:33N 35°27' E 139°41'0 0.0
2015-Mar-21 17:33N 35°27' E 139°41'0 0.0
2015-Mar-21 16:33N 35°27' E 139°41'0 0.0
2015-Mar-21 15:33N 35°27' E 139°41'0 0.0
2015-Mar-21 14:33N 35°27' E 139°41'0 0.0
2015-Mar-21 13:33N 35°27' E 139°41'0 0.0
2015-Mar-21 12:33N 35°27' E 139°41'0 0.0
2015-Mar-21 11:33N 35°27' E 139°41'0 0.0
2015-Mar-21 10:33N 35°27' E 139°41'0 0.0
2015-Mar-21 09:33N 35°27' E 139°41'0 0.0
2015-Mar-21 08:33N 35°27' E 139°41'0 0.0
2015-Mar-21 07:33N 35°27' E 139°41'0 0.0
2015-Mar-21 06:33N 35°27' E 139°41'0 0.0
2015-Mar-21 05:33N 35°27' E 139°41'0 0.0
2015-Mar-21 04:33N 35°27' E 139°41'0 0.0
2015-Mar-21 03:33N 35°27' E 139°41'0 0.0
2015-Mar-21 02:33N 35°27' E 139°41'0 0.1
2015-Mar-21 01:34N 35°27' E 139°41'7 6.9
2015-Mar-21 00:33N 35°20' E 139°43'9 9.1
2015-Mar-20 23:34N 35°12' E 139°47'1010.1
2015-Mar-20 22:33N 35°02' E 139°42'1010.3
2015-Mar-20 21:34N 34°55' E 139°33'9 8.9
2015-Mar-20 20:30N 34°49' E 139°41'2512.2
2015-Mar-20 18:25N 34°56' E 140°11'  
2015-Mar-16 05:13N 34°53' E 140°03'  
Track history (hours):
 
Tides and Currents Weather Stations Pressure Air Temp Water Temp Dewpoint Dewpoint Depression Visibility Wind Speed Wind Dir Waves Ship Positions

Eastern Galaxy

Last reported at 2015-Mar-23 20:24 UTC. Time now 2015-Mar-28 17:46 UTC.
Position N 34°29' E 138°33'.

Length 100 m; draft 5.3 m.

Type: Cargo ship. MMSI: 548829000.

Date/timePositionNaut miles runAvg speedWind from/ knotsBaromVisibWave heightAir tempDewpointWater temp
2015-Mar-23 20:24N 34°29' E 138°33'49 8.4
2015-Mar-23 14:30N 34°55' E 139°24'1111.6
2015-Mar-23 13:33N 35°01' E 139°35'1211.9
2015-Mar-23 12:33N 35°10' E 139°45'1211.6
2015-Mar-23 11:33N 35°21' E 139°42'6 5.8
2015-Mar-23 10:31N 35°27' E 139°41'0 0.0
2015-Mar-23 09:31N 35°27' E 139°41'0 0.0
2015-Mar-23 08:31N 35°27' E 139°41'0 0.0
2015-Mar-23 07:31N 35°27' E 139°41'0 0.0
2015-Mar-23 06:31N 35°27' E 139°41'0 0.0
2015-Mar-23 05:31N 35°27' E 139°41'0 0.0
2015-Mar-23 04:31N 35°27' E 139°41'0 0.0
2015-Mar-23 03:31N 35°27' E 139°41'0 0.0
2015-Mar-23 02:31N 35°27' E 139°41'0 0.0
2015-Mar-23 01:31N 35°27' E 139°41'0 0.0
2015-Mar-23 00:31N 35°27' E 139°41'0 0.0
2015-Mar-22 23:31N 35°27' E 139°41'0 0.0
2015-Mar-22 22:31N 35°27' E 139°41'0 0.0
2015-Mar-22 21:31N 35°27' E 139°41'0 0.0
2015-Mar-22 20:31N 35°27' E 139°41'0 0.0
2015-Mar-22 19:31N 35°27' E 139°41'0 0.0
2015-Mar-22 18:31N 35°27' E 139°41'0 0.0
2015-Mar-22 17:31N 35°27' E 139°41'0 0.0
2015-Mar-22 16:31N 35°27' E 139°41'0 0.0
2015-Mar-22 15:30N 35°27' E 139°41'0 0.0
2015-Mar-22 14:33N 35°27' E 139°41'0 0.0
2015-Mar-22 13:33N 35°27' E 139°41'0 0.0
2015-Mar-22 12:33N 35°27' E 139°41'0 0.0
2015-Mar-22 11:33N 35°27' E 139°41'0 0.0
2015-Mar-22 10:33N 35°27' E 139°41'0 0.0
2015-Mar-22 09:33N 35°27' E 139°41'0 0.0
2015-Mar-22 08:33N 35°27' E 139°41'0 0.0
2015-Mar-22 07:33N 35°27' E 139°41'0 0.0
2015-Mar-22 06:33N 35°27' E 139°41'0 0.0
2015-Mar-22 05:24N 35°27' E 139°41'0 0.0
2015-Mar-22 04:33N 35°27' E 139°41'0 0.0
2015-Mar-22 03:33N 35°27' E 139°41'0 0.0
2015-Mar-22 02:33N 35°27' E 139°41'0 0.0
2015-Mar-22 01:33N 35°27' E 139°41'0 0.0
2015-Mar-22 00:33N 35°27' E 139°41'0 0.0
2015-Mar-21 23:33N 35°27' E 139°41'0 0.0
2015-Mar-21 22:33N 35°27' E 139°41'0 0.0
2015-Mar-21 21:33N 35°27' E 139°41'0 0.0
2015-Mar-21 20:33N 35°27' E 139°41'0 0.0
2015-Mar-21 19:27N 35°27' E 139°41'0 0.0
2015-Mar-21 18:33N 35°27' E 139°41'0 0.0
2015-Mar-21 17:33N 35°27' E 139°41'0 0.0
2015-Mar-21 16:33N 35°27' E 139°41'0 0.0
2015-Mar-21 15:33N 35°27' E 139°41'0 0.0
2015-Mar-21 14:33N 35°27' E 139°41'0 0.0
2015-Mar-21 13:33N 35°27' E 139°41'0 0.0
2015-Mar-21 12:33N 35°27' E 139°41'0 0.0
2015-Mar-21 11:33N 35°27' E 139°41'0 0.0
2015-Mar-21 10:33N 35°27' E 139°41'0 0.0
2015-Mar-21 09:33N 35°27' E 139°41'0 0.0
2015-Mar-21 08:33N 35°27' E 139°41'0 0.0
2015-Mar-21 07:33N 35°27' E 139°41'0 0.0
2015-Mar-21 06:33N 35°27' E 139°41'0 0.0
2015-Mar-21 05:33N 35°27' E 139°41'0 0.0
2015-Mar-21 04:33N 35°27' E 139°41'0 0.0
2015-Mar-21 03:33N 35°27' E 139°41'0 0.0
2015-Mar-21 02:33N 35°27' E 139°41'0 0.1
2015-Mar-21 01:34N 35°27' E 139°41'7 6.9
2015-Mar-21 00:33N 35°20' E 139°43'9 9.1
2015-Mar-20 23:34N 35°12' E 139°47'1010.1
2015-Mar-20 22:33N 35°02' E 139°42'1010.3
2015-Mar-20 21:34N 34°55' E 139°33'9 8.9
2015-Mar-20 20:30N 34°49' E 139°41'2512.2
2015-Mar-20 18:25N 34°56' E 140°11'  
2015-Mar-16 05:13N 34°53' E 140°03'  

Dump ship's entire track history